Time;durP1;ratioP1;P1;durP2;ratioP2;P2;SDS_P1;SDS_P2;PMS_P1;PMS_P2;Temp;Humidity;BMP_temperature;BMP_pressure;BME280_temperature;BME280_humidity;BME280_pressure;Samples;Min_cycle;Max_cycle;Signal;HPM_P1;HPM_P2
2021/12/19 00:01:17;;;;;;;48.50;27.50;;;2.70;99.90;;;;;;1873075;75;21087;-71
2021/12/19 00:08:49;;;;;;;46.90;28.38;;;2.70;99.90;;;;;;1872091;75;21146;-69
2021/12/19 00:11:16;;;;;;;49.23;28.67;;;2.60;99.90;;;;;;1876803;76;21095;-71
2021/12/19 00:13:42;;;;;;;54.08;29.40;;;2.40;99.90;;;;;;1872353;75;21060;-71
2021/12/19 00:16:08;;;;;;;49.38;28.42;;;2.40;99.90;;;;;;1863339;75;21161;-71
2021/12/19 00:18:34;;;;;;;49.80;27.13;;;2.50;99.90;;;;;;1862604;76;21085;-69
2021/12/19 00:21:00;;;;;;;57.85;28.73;;;2.50;99.90;;;;;;1875661;75;21090;-70
2021/12/19 00:23:27;;;;;;;50.20;27.55;;;2.50;99.90;;;;;;1857821;75;21039;-71
2021/12/19 00:25:53;;;;;;;56.53;28.57;;;2.60;99.90;;;;;;1870265;75;21500;-71
2021/12/19 00:28:19;;;;;;;47.75;27.13;;;2.70;99.90;;;;;;1852272;76;21521;-70
2021/12/19 00:30:45;;;;;;;49.13;27.73;;;2.90;99.90;;;;;;1864892;75;21581;-71
2021/12/19 00:33:11;;;;;;;47.73;28.70;;;2.90;99.90;;;;;;1848431;76;21172;-69
2021/12/19 00:35:37;;;;;;;52.73;29.32;;;2.80;99.90;;;;;;1877792;75;21098;-70
2021/12/19 00:38:03;;;;;;;49.42;29.35;;;2.70;99.90;;;;;;1862800;74;21078;-70
2021/12/19 00:40:30;;;;;;;46.33;27.65;;;2.60;99.90;;;;;;1876386;75;21098;-69
2021/12/19 00:43:05;;;;;;;49.88;27.62;;;2.60;99.90;;;;;;1884436;76;21157;-70
2021/12/19 00:45:33;;;;;;;42.98;27.45;;;2.70;99.90;;;;;;1879256;75;21219;-69
2021/12/19 00:47:58;;;;;;;49.10;28.07;;;2.70;99.90;;;;;;1856879;76;21457;-68
2021/12/19 00:50:24;;;;;;;51.40;29.63;;;2.70;99.90;;;;;;1879228;75;21518;-68
2021/12/19 00:52:50;;;;;;;47.75;27.93;;;2.70;99.90;;;;;;1878526;75;21515;-70
2021/12/19 00:55:16;;;;;;;41.18;26.27;;;2.60;99.90;;;;;;1854365;76;21513;-70
2021/12/19 00:57:42;;;;;;;52.25;29.18;;;2.60;99.90;;;;;;1862456;76;21089;-70
2021/12/19 01:00:08;;;;;;;46.85;26.57;;;2.60;99.90;;;;;;1857064;75;21055;-69
2021/12/19 01:02:35;;;;;;;56.08;29.87;;;2.50;99.90;;;;;;1871961;76;21094;-69
2021/12/19 01:05:01;;;;;;;55.70;29.92;;;2.50;99.90;;;;;;1868347;75;21143;-69
2021/12/19 01:07:27;;;;;;;53.10;30.75;;;2.50;99.90;;;;;;1863724;74;21188;-70
2021/12/19 01:09:53;;;;;;;49.60;29.35;;;2.40;99.90;;;;;;1853553;76;21046;-71
2021/12/19 01:12:19;;;;;;;52.35;28.85;;;2.50;99.90;;;;;;1880665;76;21094;-70
2021/12/19 01:14:45;;;;;;;55.98;30.97;;;2.50;99.90;;;;;;1881563;76;21241;-70
2021/12/19 01:17:11;;;;;;;56.65;29.50;;;2.60;99.90;;;;;;1861764;76;21134;-70
2021/12/19 01:19:37;;;;;;;53.58;30.40;;;2.50;99.90;;;;;;1860039;76;21506;-69
2021/12/19 01:22:03;;;;;;;54.70;30.97;;;2.30;99.90;;;;;;1880763;76;21451;-69
2021/12/19 01:24:30;;;;;;;62.60;30.60;;;2.30;99.90;;;;;;1858947;76;21571;-69
2021/12/19 01:26:56;;;;;;;49.88;30.88;;;2.30;99.90;;;;;;1862986;75;21217;-69
2021/12/19 01:29:22;;;;;;;64.60;32.00;;;2.40;99.90;;;;;;1871227;76;21086;-70
2021/12/19 01:31:48;;;;;;;52.88;31.45;;;2.30;99.90;;;;;;1871353;75;21168;-70
2021/12/19 01:34:16;;;;;;;54.60;31.60;;;2.30;99.90;;;;;;1876668;76;21504;-70
2021/12/19 01:36:42;;;;;;;55.55;30.68;;;2.40;99.90;;;;;;1876181;75;21241;-71
2021/12/19 01:39:08;;;;;;;47.62;29.02;;;2.40;99.90;;;;;;1860075;76;21067;-69
2021/12/19 01:41:34;;;;;;;50.73;30.50;;;2.50;99.90;;;;;;1867275;76;21157;-69
2021/12/19 01:44:00;;;;;;;56.23;29.57;;;2.40;99.90;;;;;;1867466;76;21099;-70
2021/12/19 01:46:28;;;;;;;50.60;28.40;;;2.50;99.90;;;;;;1877851;76;21090;-68
2021/12/19 01:48:54;;;;;;;58.20;31.10;;;2.50;99.90;;;;;;1874544;76;21094;-69
2021/12/19 01:51:20;;;;;;;61.88;32.33;;;2.60;99.90;;;;;;1857556;76;21160;-70
2021/12/19 01:53:46;;;;;;;61.15;31.33;;;2.40;99.90;;;;;;1876684;75;21094;-71
2021/12/19 01:56:13;;;;;;;56.90;31.45;;;2.50;99.90;;;;;;1858649;75;21078;-70
2021/12/19 01:58:39;;;;;;;59.23;31.62;;;2.40;99.90;;;;;;1880304;76;21171;-70
2021/12/19 02:01:05;;;;;;;57.17;30.77;;;2.40;99.90;;;;;;1881248;76;21131;-69
2021/12/19 02:03:31;;;;;;;67.60;32.08;;;2.50;99.90;;;;;;1867155;75;21168;-70
2021/12/19 02:05:57;;;;;;;69.92;33.85;;;2.50;99.90;;;;;;1878384;76;21087;-69
2021/12/19 02:08:23;;;;;;;52.05;31.68;;;2.50;99.90;;;;;;1873560;75;21100;-69
2021/12/19 02:10:49;;;;;;;51.88;30.45;;;2.40;99.90;;;;;;1876789;76;21082;-69
2021/12/19 02:13:15;;;;;;;48.52;28.92;;;2.40;99.90;;;;;;1881410;76;21168;-70
2021/12/19 02:15:42;;;;;;;56.85;30.85;;;2.50;99.90;;;;;;1866272;75;21095;-71
2021/12/19 02:18:08;;;;;;;54.08;30.23;;;2.40;99.90;;;;;;1873808;75;21089;-70
2021/12/19 02:20:34;;;;;;;65.00;29.90;;;2.40;99.90;;;;;;1858995;76;21352;-71
2021/12/19 02:23:00;;;;;;;51.20;30.25;;;2.50;99.90;;;;;;1865286;76;21086;-70
2021/12/19 02:25:26;;;;;;;55.15;31.55;;;2.50;99.90;;;;;;1860568;75;21052;-70
2021/12/19 02:27:52;;;;;;;56.20;32.63;;;2.40;99.90;;;;;;1861103;75;21169;-70
2021/12/19 02:30:18;;;;;;;59.00;32.13;;;2.30;99.90;;;;;;1871496;75;21086;-71
2021/12/19 02:32:44;;;;;;;61.63;32.45;;;2.30;99.90;;;;;;1876567;75;21093;-70
2021/12/19 02:35:13;;;;;;;54.58;31.25;;;2.30;99.90;;;;;;1851564;76;21109;-71
2021/12/19 02:48:12;;;;;;;46.80;28.15;;;2.30;99.90;;;;;;1862569;75;21134;-71
2021/12/19 02:50:43;;;;;;;50.05;30.12;;;2.40;99.90;;;;;;1876224;76;21495;-70
2021/12/19 02:53:06;;;;;;;55.58;30.90;;;2.40;99.90;;;;;;1880503;75;21094;-70
2021/12/19 02:55:32;;;;;;;53.23;29.82;;;2.50;99.90;;;;;;1861000;76;21130;-70
2021/12/19 02:57:58;;;;;;;58.28;31.33;;;2.50;99.90;;;;;;1880315;76;21102;-70
2021/12/19 03:00:24;;;;;;;63.70;30.95;;;2.50;99.90;;;;;;1862708;75;21094;-70
2021/12/19 03:02:50;;;;;;;56.30;31.50;;;2.60;99.90;;;;;;1876229;76;21184;-70
2021/12/19 03:05:16;;;;;;;55.05;30.25;;;2.50;99.90;;;;;;1885393;75;21168;-70
2021/12/19 03:07:44;;;;;;;56.28;29.42;;;2.60;99.90;;;;;;1882491;76;21106;-70
2021/12/19 03:10:45;;;;;;;55.28;27.52;;;2.50;99.90;;;;;;1870539;75;21156;-69
2021/12/19 03:18:01;;;;;;;51.00;26.95;;;2.50;99.90;;;;;;1877405;75;21198;-70
2021/12/19 03:20:27;;;;;;;57.80;29.07;;;2.50;99.90;;;;;;1875621;75;21448;-70
2021/12/19 03:22:54;;;;;;;46.58;27.45;;;2.50;99.90;;;;;;1879894;75;21608;-69
2021/12/19 03:25:20;;;;;;;54.80;30.65;;;2.50;99.90;;;;;;1875486;76;21074;-70
2021/12/19 03:27:46;;;;;;;53.33;28.92;;;2.40;99.90;;;;;;1877223;76;21164;-70
2021/12/19 03:30:12;;;;;;;56.02;26.90;;;2.30;99.90;;;;;;1871997;76;21146;-71
2021/12/19 03:32:38;;;;;;;49.75;26.23;;;2.30;99.90;;;;;;1870589;76;21155;-70
2021/12/19 03:35:04;;;;;;;51.83;24.43;;;2.30;99.90;;;;;;1864524;76;21156;-70
2021/12/19 03:37:30;;;;;;;45.03;24.65;;;2.40;99.90;;;;;;1879879;75;21090;-70
2021/12/19 03:40:07;;;;;;;47.55;25.23;;;2.30;99.90;;;;;;1883232;75;21090;-70
2021/12/19 03:42:24;;;;;;;54.35;25.70;;;2.30;99.90;;;;;;1875243;75;21432;-70
2021/12/19 03:44:50;;;;;;;41.63;23.30;;;2.20;99.90;;;;;;1876366;75;21081;-70
2021/12/19 03:47:16;;;;;;;48.90;25.10;;;2.30;99.90;;;;;;1870237;76;21160;-70
2021/12/19 03:49:43;;;;;;;48.40;24.95;;;2.30;99.90;;;;;;1892586;74;21212;-69
2021/12/19 03:52:09;;;;;;;54.40;24.05;;;2.30;99.90;;;;;;1890528;75;21373;-70
2021/12/19 03:54:35;;;;;;;48.35;25.35;;;2.30;99.90;;;;;;1868064;74;21200;-70
2021/12/19 03:57:01;;;;;;;54.35;24.80;;;2.30;99.90;;;;;;1879825;76;21092;-71
2021/12/19 03:59:27;;;;;;;48.90;25.05;;;2.30;99.90;;;;;;1876749;75;21046;-71
2021/12/19 04:01:54;;;;;;;47.27;23.62;;;2.20;99.90;;;;;;1858517;76;21065;-70
2021/12/19 04:04:20;;;;;;;45.17;25.75;;;2.30;99.90;;;;;;1879416;75;21090;-70
2021/12/19 04:06:46;;;;;;;44.38;24.47;;;2.30;99.90;;;;;;1865653;76;21506;-70
2021/12/19 04:09:12;;;;;;;58.13;26.52;;;2.20;99.90;;;;;;1882154;75;21499;-70
2021/12/19 04:11:38;;;;;;;54.93;27.60;;;2.20;99.90;;;;;;1870243;76;21587;-70
2021/12/19 04:14:04;;;;;;;56.08;27.58;;;2.30;99.90;;;;;;1882337;75;21136;-70
2021/12/19 04:16:30;;;;;;;51.42;25.77;;;2.30;99.90;;;;;;1873931;76;22529;-70
2021/12/19 04:18:57;;;;;;;47.80;24.43;;;2.40;99.90;;;;;;1877274;75;21350;-71
2021/12/19 04:21:23;;;;;;;47.08;24.20;;;2.40;99.90;;;;;;1878066;75;21093;-72
2021/12/19 04:23:49;;;;;;;46.33;24.27;;;2.40;99.90;;;;;;1881030;76;21510;-69
2021/12/19 04:26:15;;;;;;;46.75;25.37;;;2.30;99.90;;;;;;1878310;75;21600;-70
2021/12/19 04:28:42;;;;;;;47.35;24.40;;;2.30;99.90;;;;;;1875897;75;21059;-72
2021/12/19 04:31:08;;;;;;;43.13;23.45;;;2.30;99.90;;;;;;1866097;75;21145;-70
2021/12/19 04:33:37;;;;;;;39.80;23.05;;;2.30;99.90;;;;;;1879168;75;21156;-72
2021/12/19 04:36:03;;;;;;;42.75;22.58;;;2.30;99.90;;;;;;1877783;75;21124;-72
2021/12/19 04:54:33;;;;;;;52.65;23.07;;;2.10;99.90;;;;;;1881126;75;21176;-70
2021/12/19 05:15:27;;;;;;;46.23;19.82;;;2.00;99.90;;;;;;1866418;76;21702;-70
2021/12/19 05:17:53;;;;;;;41.20;18.48;;;2.00;99.90;;;;;;1874504;75;21175;-70
2021/12/19 05:20:22;;;;;;;40.03;19.73;;;2.10;99.90;;;;;;1880899;75;21098;-71
2021/12/19 05:22:49;;;;;;;39.38;19.92;;;2.00;99.90;;;;;;1872280;75;21191;-70
2021/12/19 05:25:14;;;;;;;43.00;20.35;;;2.00;99.90;;;;;;1852081;76;21629;-70
2021/12/19 05:27:40;;;;;;;38.30;18.48;;;2.00;99.90;;;;;;1884147;76;21493;-69
2021/12/19 05:30:07;;;;;;;45.80;19.02;;;2.00;99.90;;;;;;1892600;76;21498;-71
2021/12/19 05:32:33;;;;;;;37.95;18.20;;;2.00;99.90;;;;;;1863261;76;21505;-69
2021/12/19 05:34:59;;;;;;;40.75;18.48;;;2.00;99.90;;;;;;1880521;75;21152;-71
2021/12/19 05:45:21;;;;;;;43.60;18.00;;;1.90;99.90;;;;;;1875258;76;21074;-71
2021/12/19 05:47:47;;;;;;;34.18;17.85;;;1.90;99.90;;;;;;1877917;76;21172;-71
2021/12/19 05:50:13;;;;;;;34.70;18.27;;;1.90;99.90;;;;;;1886096;76;21159;-71
2021/12/19 05:52:39;;;;;;;42.58;17.92;;;1.90;99.90;;;;;;1881859;76;21059;-70
2021/12/19 05:55:05;;;;;;;40.52;18.42;;;1.90;99.90;;;;;;1871547;76;21569;-71
2021/12/19 05:57:31;;;;;;;32.67;17.70;;;1.90;99.90;;;;;;1869612;76;21480;-71
2021/12/19 05:59:58;;;;;;;52.10;19.15;;;1.80;99.90;;;;;;1859318;75;21502;-72
2021/12/19 06:02:25;;;;;;;34.20;17.87;;;1.80;99.90;;;;;;1883702;74;21155;-71
2021/12/19 06:04:51;;;;;;;45.05;19.27;;;1.80;99.90;;;;;;1882393;76;21093;-71
2021/12/19 06:07:17;;;;;;;35.17;18.48;;;1.80;99.90;;;;;;1857555;75;21081;-71
2021/12/19 06:09:43;;;;;;;34.48;18.10;;;1.80;99.90;;;;;;1867316;76;21207;-71
2021/12/19 06:12:09;;;;;;;40.92;18.17;;;1.70;99.90;;;;;;1882739;76;21161;-71
2021/12/19 06:14:35;;;;;;;35.45;17.27;;;1.70;99.90;;;;;;1861284;75;21171;-71
2021/12/19 06:17:01;;;;;;;34.58;18.30;;;1.80;99.90;;;;;;1868499;76;21090;-71
2021/12/19 06:19:27;;;;;;;40.43;19.15;;;1.80;99.90;;;;;;1875827;76;21252;-71
2021/12/19 06:21:54;;;;;;;44.75;18.62;;;1.70;99.90;;;;;;1876501;75;21058;-72
2021/12/19 06:24:20;;;;;;;38.88;17.73;;;1.70;99.90;;;;;;1881511;76;21584;-71
2021/12/19 06:26:46;;;;;;;40.58;19.27;;;1.70;99.90;;;;;;1878364;75;21160;-71
2021/12/19 06:29:12;;;;;;;35.65;17.73;;;1.70;99.90;;;;;;1860924;76;21084;-71
2021/12/19 06:31:38;;;;;;;38.73;18.37;;;1.70;99.90;;;;;;1864157;76;21139;-72
2021/12/19 06:34:04;;;;;;;37.35;19.17;;;1.60;99.90;;;;;;1883091;76;21086;-72
2021/12/19 06:36:30;;;;;;;30.80;16.27;;;1.70;99.90;;;;;;1881650;76;21059;-72
2021/12/19 06:38:56;;;;;;;34.23;16.75;;;1.70;99.90;;;;;;1879416;76;21156;-71
2021/12/19 06:41:23;;;;;;;36.40;16.73;;;1.80;99.90;;;;;;1873215;75;21081;-73
2021/12/19 06:43:49;;;;;;;30.70;16.27;;;1.70;99.90;;;;;;1871439;75;21090;-73
2021/12/19 06:46:16;;;;;;;32.00;16.25;;;1.70;99.90;;;;;;1851277;76;21093;-70
2021/12/19 06:48:43;;;;;;;32.95;16.65;;;1.70;99.90;;;;;;1876995;76;21144;-71
2021/12/19 06:51:10;;;;;;;32.53;16.48;;;1.70;99.90;;;;;;1868280;75;21093;-71
2021/12/19 06:53:36;;;;;;;28.90;14.85;;;1.70;99.90;;;;;;1869585;75;21212;-73
2021/12/19 06:56:02;;;;;;;29.65;15.63;;;1.70;99.90;;;;;;1860566;76;21085;-72
2021/12/19 06:58:28;;;;;;;32.10;15.43;;;1.70;99.90;;;;;;1861611;76;21156;-72
2021/12/19 07:00:54;;;;;;;26.27;15.32;;;1.70;99.90;;;;;;1880862;76;21087;-73
2021/12/19 07:03:23;;;;;;;31.23;15.90;;;1.80;99.90;;;;;;1875402;75;21064;-72
2021/12/19 07:05:48;;;;;;;28.95;15.18;;;1.70;99.90;;;;;;1870723;75;21196;-73
2021/12/19 07:08:14;;;;;;;35.68;15.43;;;1.80;99.90;;;;;;1860805;75;21101;-72
2021/12/19 07:10:40;;;;;;;31.07;15.10;;;1.80;99.90;;;;;;1874795;76;21078;-73
2021/12/19 07:13:06;;;;;;;27.90;13.88;;;1.80;99.90;;;;;;1877611;75;21213;-72
2021/12/19 07:15:32;;;;;;;25.62;13.45;;;1.80;99.90;;;;;;1878091;74;21121;-71
2021/12/19 07:18:02;;;;;;;24.00;13.00;;;1.70;99.90;;;;;;1877979;75;21094;-72
2021/12/19 07:20:26;;;;;;;24.63;13.88;;;1.70;99.90;;;;;;1878812;75;21073;-71
2021/12/19 07:22:52;;;;;;;21.07;13.53;;;1.70;99.90;;;;;;1885122;75;21219;-71
2021/12/19 07:25:19;;;;;;;19.95;12.78;;;1.70;99.90;;;;;;1870586;75;21089;-73
2021/12/19 07:27:45;;;;;;;26.97;13.98;;;1.70;99.90;;;;;;1855745;75;21081;-69
2021/12/19 07:30:11;;;;;;;28.17;13.70;;;1.70;99.90;;;;;;1867622;75;21090;-72
2021/12/19 07:32:38;;;;;;;22.55;12.82;;;1.70;99.90;;;;;;1876301;75;21074;-72
2021/12/19 07:35:07;;;;;;;25.02;13.03;;;1.70;99.90;;;;;;1863821;76;21314;-72
2021/12/19 07:37:32;;;;;;;33.42;13.43;;;1.70;99.90;;;;;;1852557;76;21124;-72
2021/12/19 07:40:03;;;;;;;27.05;13.03;;;1.70;99.90;;;;;;1863148;76;21156;-73
2021/12/19 07:42:26;;;;;;;30.02;12.60;;;1.70;99.90;;;;;;1870761;76;21540;-72
2021/12/19 07:44:53;;;;;;;27.00;12.45;;;1.60;99.90;;;;;;1870603;75;21573;-72
2021/12/19 07:47:20;;;;;;;21.97;12.85;;;1.60;99.90;;;;;;1865725;76;21493;-72
2021/12/19 07:49:46;;;;;;;21.75;12.90;;;1.60;99.90;;;;;;1868936;75;21088;-73
2021/12/19 07:52:12;;;;;;;23.73;12.70;;;1.60;99.90;;;;;;1863815;76;21079;-74
2021/12/19 07:54:38;;;;;;;32.17;13.83;;;1.70;99.90;;;;;;1864964;75;21163;-74
2021/12/19 07:57:04;;;;;;;23.92;11.30;;;1.70;99.90;;;;;;1870731;76;21171;-74
2021/12/19 07:59:31;;;;;;;24.57;12.80;;;1.70;99.90;;;;;;1880023;76;21167;-74
2021/12/19 08:01:57;;;;;;;29.35;12.93;;;1.70;99.90;;;;;;1867890;75;21166;-75
2021/12/19 08:04:23;;;;;;;22.32;11.45;;;1.70;99.90;;;;;;1874087;76;21205;-74
2021/12/19 08:06:50;;;;;;;20.92;11.53;;;1.70;99.90;;;;;;1865650;76;21154;-74
2021/12/19 08:09:24;;;;;;;22.37;10.85;;;1.70;99.90;;;;;;1878759;76;21082;-75
2021/12/19 08:11:44;;;;;;;15.55;9.08;;;1.70;99.90;;;;;;1875044;76;22569;-75
2021/12/19 08:14:10;;;;;;;20.82;10.68;;;1.60;99.90;;;;;;1865538;76;21285;-74
2021/12/19 08:16:36;;;;;;;17.17;10.23;;;1.70;99.90;;;;;;1876653;76;21097;-75
2021/12/19 08:19:02;;;;;;;19.57;10.98;;;1.70;99.90;;;;;;1873379;75;21466;-76
2021/12/19 08:21:28;;;;;;;17.85;10.48;;;1.80;99.90;;;;;;1879463;75;21469;-75
2021/12/19 08:23:58;;;;;;;16.27;9.58;;;1.80;99.90;;;;;;1858987;75;21524;-75
2021/12/19 08:26:22;;;;;;;17.77;10.45;;;1.80;99.90;;;;;;1875380;75;21139;-76
2021/12/19 08:28:48;;;;;;;17.57;9.73;;;1.80;99.90;;;;;;1880269;76;21229;-75
2021/12/19 08:31:14;;;;;;;15.58;9.83;;;1.80;99.90;;;;;;1879260;76;21055;-74
2021/12/19 08:33:41;;;;;;;15.68;10.00;;;1.80;99.90;;;;;;1884993;74;21505;-74
2021/12/19 08:36:07;;;;;;;15.53;9.53;;;1.80;99.90;;;;;;1871083;75;21152;-75
2021/12/19 08:38:34;;;;;;;15.40;9.68;;;1.90;99.90;;;;;;1863471;75;21093;-75
2021/12/19 08:41:00;;;;;;;14.47;8.80;;;1.90;99.90;;;;;;1855847;75;21179;-75
2021/12/19 08:43:26;;;;;;;14.87;9.63;;;2.00;99.90;;;;;;1860978;75;21559;-73
2021/12/19 08:45:52;;;;;;;18.57;9.55;;;2.10;99.90;;;;;;1866373;76;21509;-75
2021/12/19 08:48:18;;;;;;;16.48;9.20;;;2.00;99.90;;;;;;1869999;75;21451;-75
2021/12/19 08:50:44;;;;;;;14.85;9.08;;;2.00;99.90;;;;;;1872990;76;21163;-75
2021/12/19 08:53:10;;;;;;;15.90;8.78;;;2.00;99.90;;;;;;1871684;75;21277;-75
2021/12/19 08:55:36;;;;;;;14.00;9.05;;;2.00;99.90;;;;;;1860587;76;21164;-74
2021/12/19 08:58:04;;;;;;;15.95;8.95;;;2.00;99.90;;;;;;1880842;75;21153;-73
2021/12/19 09:00:31;;;;;;;18.73;9.23;;;1.90;99.90;;;;;;1865347;76;21680;-73
2021/12/19 09:03:00;;;;;;;15.10;8.03;;;1.80;99.90;;;;;;1860877;76;21168;-75
2021/12/19 09:05:26;;;;;;;14.30;8.38;;;1.80;99.90;;;;;;1860081;76;21056;-76
2021/12/19 09:07:52;;;;;;;22.83;8.77;;;1.80;99.90;;;;;;1879871;75;21082;-77
2021/12/19 09:10:19;;;;;;;12.65;8.23;;;1.80;99.90;;;;;;1848831;75;21167;-76
2021/12/19 09:12:45;;;;;;;16.02;9.08;;;1.70;99.90;;;;;;1887639;74;21133;-76
2021/12/19 09:15:11;;;;;;;13.43;8.63;;;1.70;99.90;;;;;;1867664;75;21095;-77
2021/12/19 09:17:37;;;;;;;16.25;8.53;;;1.70;99.90;;;;;;1871855;76;21082;-78
2021/12/19 09:20:03;;;;;;;17.55;9.28;;;1.80;99.90;;;;;;1870793;76;21042;-75
2021/12/19 09:22:29;;;;;;;18.48;9.70;;;1.80;99.90;;;;;;1865894;75;21088;-76
2021/12/19 09:24:57;;;;;;;16.25;8.65;;;1.90;99.90;;;;;;1874558;75;21156;-78
2021/12/19 09:27:23;;;;;;;15.03;8.38;;;1.90;99.90;;;;;;1880106;74;21209;-75
2021/12/19 09:29:49;;;;;;;16.55;9.38;;;1.90;99.90;;;;;;1875857;76;21196;-77
2021/12/19 09:32:15;;;;;;;13.68;7.78;;;2.00;99.90;;;;;;1867890;74;21093;-76
2021/12/19 09:34:41;;;;;;;17.15;8.90;;;2.10;99.90;;;;;;1887195;75;21044;-79
2021/12/19 09:37:08;;;;;;;14.03;8.90;;;2.10;99.90;;;;;;1876605;76;21085;-79
2021/12/19 09:39:34;;;;;;;21.00;8.60;;;2.10;99.90;;;;;;1864482;76;21196;-78
2021/12/19 09:42:02;;;;;;;16.30;8.58;;;2.20;99.90;;;;;;1881685;75;21085;-79
2021/12/19 09:44:28;;;;;;;10.78;7.05;;;2.20;99.90;;;;;;1873800;75;21133;-76
2021/12/19 09:46:55;;;;;;;12.33;7.17;;;2.20;99.90;;;;;;1870607;76;21572;-78
2021/12/19 09:49:21;;;;;;;12.68;6.78;;;2.20;99.90;;;;;;1874729;76;21489;-78
2021/12/19 09:51:48;;;;;;;11.25;6.72;;;2.30;99.90;;;;;;1873684;75;21557;-77
2021/12/19 09:54:14;;;;;;;11.22;6.70;;;2.40;99.90;;;;;;1865286;76;21570;-78
2021/12/19 09:56:42;;;;;;;12.33;6.70;;;2.30;99.90;;;;;;1878188;75;21120;-79
2021/12/19 09:59:08;;;;;;;11.30;7.42;;;2.30;99.90;;;;;;1855659;76;21475;-79
2021/12/19 10:01:34;;;;;;;8.73;6.55;;;2.30;99.90;;;;;;1886216;76;21580;-79
2021/12/19 10:04:01;;;;;;;7.92;5.55;;;2.30;99.90;;;;;;1881138;75;21526;-78
2021/12/19 10:06:27;;;;;;;9.53;6.42;;;2.30;99.90;;;;;;1867754;76;21493;-78
2021/12/19 10:08:53;;;;;;;13.72;6.55;;;2.30;99.90;;;;;;1867527;76;21194;-78
2021/12/19 10:11:28;;;;;;;11.83;5.80;;;2.30;99.90;;;;;;1889479;75;21098;-79
2021/12/19 10:13:50;;;;;;;12.07;7.55;;;2.40;99.90;;;;;;1872570;75;21136;-79
2021/12/19 10:16:19;;;;;;;14.13;6.92;;;2.50;99.90;;;;;;1885286;75;21503;-79
2021/12/19 10:18:47;;;;;;;12.70;6.00;;;2.60;99.90;;;;;;1850863;75;21101;-78
2021/12/19 10:21:14;;;;;;;10.98;5.55;;;2.60;99.90;;;;;;1860402;75;21058;-78
2021/12/19 10:23:42;;;;;;;9.73;6.10;;;2.50;99.90;;;;;;1867645;76;21082;-78
2021/12/19 10:26:08;;;;;;;10.75;5.83;;;2.40;99.90;;;;;;1871587;75;21091;-78
2021/12/19 10:28:34;;;;;;;9.10;6.00;;;2.30;99.90;;;;;;1860897;76;21062;-79
2021/12/19 10:31:01;;;;;;;13.53;6.45;;;2.40;99.90;;;;;;1866203;75;21211;-79
2021/12/19 10:33:27;;;;;;;14.30;7.95;;;2.40;99.90;;;;;;1874010;76;21093;-79
2021/12/19 10:35:54;;;;;;;13.53;6.62;;;2.50;99.90;;;;;;1873423;75;21079;-76
2021/12/19 10:38:20;;;;;;;8.85;6.15;;;2.50;99.90;;;;;;1868489;76;21591;-79
2021/12/19 10:40:46;;;;;;;14.45;8.48;;;2.50;99.90;;;;;;1863428;75;21508;-78
2021/12/19 10:43:16;;;;;;;15.90;8.75;;;2.40;99.90;;;;;;1889431;75;21086;-78
2021/12/19 10:45:40;;;;;;;11.48;6.78;;;2.40;99.90;;;;;;1881681;75;21533;-77
2021/12/19 10:48:06;;;;;;;12.45;6.62;;;2.40;99.90;;;;;;1875827;75;21112;-78
2021/12/19 10:50:32;;;;;;;10.98;6.85;;;2.40;99.90;;;;;;1875710;75;21094;-78
2021/12/19 10:52:58;;;;;;;11.30;6.30;;;2.40;99.90;;;;;;1889531;75;21168;-77
2021/12/19 10:55:24;;;;;;;9.80;6.08;;;2.40;99.90;;;;;;1876423;75;21124;-78
2021/12/19 10:57:51;;;;;;;11.60;6.60;;;2.30;99.90;;;;;;1866850;75;21085;-78
2021/12/19 11:00:17;;;;;;;7.40;5.28;;;2.30;99.90;;;;;;1871238;76;21168;-77
2021/12/19 11:02:43;;;;;;;9.18;6.28;;;2.40;99.90;;;;;;1867346;75;21089;-78
2021/12/19 11:05:09;;;;;;;10.30;6.10;;;2.40;99.90;;;;;;1864703;75;21186;-79
2021/12/19 11:07:36;;;;;;;11.22;6.20;;;2.50;99.90;;;;;;1856287;75;21085;-78
2021/12/19 11:10:02;;;;;;;9.80;4.83;;;2.50;99.90;;;;;;1873770;76;21169;-78
2021/12/19 11:12:28;;;;;;;10.23;5.97;;;2.70;99.90;;;;;;1874188;75;21144;-79
2021/12/19 11:14:56;;;;;;;7.83;5.05;;;2.80;99.90;;;;;;1882238;76;22573;-79
2021/12/19 11:17:22;;;;;;;7.67;5.30;;;2.90;99.90;;;;;;1877321;74;21145;-78
2021/12/19 11:19:48;;;;;;;10.58;5.35;;;2.80;99.90;;;;;;1872045;76;21074;-78
2021/12/19 11:22:23;;;;;;;5.45;4.50;;;2.70;99.90;;;;;;1881706;76;21163;-79
2021/12/19 11:24:44;;;;;;;7.37;4.70;;;2.70;99.90;;;;;;1865652;75;21079;-79
2021/12/19 11:27:10;;;;;;;6.30;4.47;;;2.70;99.90;;;;;;1875067;75;21162;-80
2021/12/19 11:29:36;;;;;;;10.43;4.90;;;2.70;99.90;;;;;;1871836;76;21081;-78
2021/12/19 11:32:04;;;;;;;7.20;4.55;;;2.80;99.90;;;;;;1874161;75;21059;-79
2021/12/19 11:34:30;;;;;;;5.67;3.67;;;2.90;99.90;;;;;;1862610;75;21069;-76
2021/12/19 11:36:56;;;;;;;5.53;3.40;;;2.90;99.90;;;;;;1866125;75;21168;-79
2021/12/19 11:39:23;;;;;;;4.42;3.33;;;2.90;99.90;;;;;;1875071;75;21181;-80
2021/12/19 11:41:49;;;;;;;4.20;3.27;;;3.00;99.90;;;;;;1872735;74;21227;-78
2021/12/19 11:44:15;;;;;;;4.58;3.25;;;3.00;99.90;;;;;;1881397;75;21150;-77
2021/12/19 11:46:41;;;;;;;4.60;3.35;;;3.00;99.90;;;;;;1868117;76;21507;-78
2021/12/19 11:49:07;;;;;;;3.10;2.75;;;2.90;99.90;;;;;;1867291;76;21069;-78
2021/12/19 11:51:34;;;;;;;2.92;2.62;;;3.00;99.90;;;;;;1867299;75;21171;-78
2021/12/19 11:54:00;;;;;;;5.20;3.00;;;3.00;99.90;;;;;;1870803;75;21124;-78
2021/12/19 11:56:26;;;;;;;3.08;2.70;;;3.10;99.90;;;;;;1858085;76;21089;-79
2021/12/19 11:58:52;;;;;;;2.75;2.35;;;3.10;99.90;;;;;;1865325;74;21141;-78
2021/12/19 12:01:19;;;;;;;11.60;3.20;;;3.10;99.90;;;;;;1889636;75;21180;-77
2021/12/19 12:03:45;;;;;;;4.72;3.25;;;2.90;99.90;;;;;;1842516;76;21082;-77
2021/12/19 12:06:11;;;;;;;6.05;3.12;;;3.00;99.90;;;;;;1888019;76;21167;-78
2021/12/19 12:08:37;;;;;;;3.52;3.10;;;3.00;99.90;;;;;;1875893;76;21169;-79
2021/12/19 12:11:03;;;;;;;6.75;3.70;;;3.00;99.90;;;;;;1882849;75;21217;-77
2021/12/19 12:13:30;;;;;;;5.03;3.70;;;3.10;99.90;;;;;;1872121;76;21110;-78
2021/12/19 12:16:08;;;;;;;6.62;4.00;;;3.10;99.90;;;;;;1862175;76;21168;-77
2021/12/19 12:18:27;;;;;;;5.95;3.67;;;3.00;99.90;;;;;;1868269;76;21151;-78
2021/12/19 12:20:53;;;;;;;8.13;4.55;;;3.00;99.90;;;;;;1861813;75;21086;-77
2021/12/19 12:23:20;;;;;;;6.58;4.55;;;2.90;99.90;;;;;;1868498;75;21147;-78
2021/12/19 12:25:46;;;;;;;6.78;4.17;;;3.00;99.90;;;;;;1879280;74;21094;-78
2021/12/19 12:28:16;;;;;;;9.28;4.40;;;3.00;99.90;;;;;;1880718;75;21506;-78
2021/12/19 12:30:40;;;;;;;5.85;4.70;;;3.00;99.90;;;;;;1881265;75;21310;-78
2021/12/19 12:33:06;;;;;;;11.55;6.28;;;2.90;99.90;;;;;;1880387;76;21154;-80
2021/12/19 12:35:32;;;;;;;9.45;6.45;;;2.90;99.90;;;;;;1871268;76;21078;-78
2021/12/19 12:37:59;;;;;;;14.70;6.60;;;3.00;99.90;;;;;;1869646;76;21159;-79
2021/12/19 12:40:29;;;;;;;9.28;5.87;;;3.00;99.90;;;;;;1867269;76;21557;-77
2021/12/19 12:42:54;;;;;;;10.85;6.83;;;2.80;99.90;;;;;;1861103;75;21224;-79
2021/12/19 12:45:22;;;;;;;11.05;6.90;;;2.80;99.90;;;;;;1884670;76;21215;-77
2021/12/19 12:47:49;;;;;;;10.38;6.67;;;2.80;99.90;;;;;;1877477;74;21164;-79
2021/12/19 12:50:15;;;;;;;11.15;6.42;;;2.90;99.90;;;;;;1877828;75;21060;-79
2021/12/19 12:52:41;;;;;;;10.80;6.72;;;2.90;99.90;;;;;;1886849;75;21144;-78
2021/12/19 12:55:07;;;;;;;13.15;7.40;;;2.80;99.90;;;;;;1869220;76;21086;-79
2021/12/19 12:57:40;;;;;;;11.43;6.50;;;2.80;99.90;;;;;;1886383;74;21087;-79
2021/12/19 13:00:05;;;;;;;9.95;6.65;;;2.80;99.90;;;;;;1878738;75;21174;-79
2021/12/19 13:02:42;;;;;;;8.10;6.03;;;2.80;99.90;;;;;;1867411;75;21152;-79
2021/12/19 13:05:02;;;;;;;11.33;7.17;;;2.90;99.90;;;;;;1883157;75;21489;-80
2021/12/19 13:07:29;;;;;;;9.43;7.00;;;2.80;99.90;;;;;;1885970;76;21106;-77
2021/12/19 13:09:57;;;;;;;14.15;7.47;;;2.70;99.90;;;;;;1863746;75;21038;-78
2021/12/19 13:12:25;;;;;;;7.92;6.03;;;2.60;99.90;;;;;;1865707;76;21100;-77
2021/12/19 13:14:53;;;;;;;10.43;7.62;;;2.60;99.90;;;;;;1866156;76;21192;-79
2021/12/19 13:17:18;;;;;;;9.53;6.90;;;2.70;99.90;;;;;;1847909;76;21556;-79
2021/12/19 13:19:45;;;;;;;13.95;8.15;;;2.70;99.90;;;;;;1862704;75;21602;-80
2021/12/19 13:22:11;;;;;;;8.03;6.55;;;2.70;99.90;;;;;;1868882;75;21076;-76
2021/12/19 13:24:37;;;;;;;13.90;7.50;;;2.70;99.90;;;;;;1883236;75;21082;-79
2021/12/19 13:27:04;;;;;;;10.00;7.22;;;2.70;99.90;;;;;;1872373;76;21163;-77
2021/12/19 13:29:30;;;;;;;11.90;7.72;;;2.60;99.90;;;;;;1863890;75;21086;-78
2021/12/19 13:31:56;;;;;;;12.85;8.48;;;2.60;99.90;;;;;;1872540;76;21163;-77
2021/12/19 13:34:22;;;;;;;12.82;7.92;;;2.60;99.90;;;;;;1862133;76;21083;-77
2021/12/19 13:36:49;;;;;;;11.63;7.80;;;2.60;99.90;;;;;;1878749;75;21189;-79
2021/12/19 13:39:15;;;;;;;12.60;8.00;;;2.60;99.90;;;;;;1868281;76;21051;-80
2021/12/19 13:41:42;;;;;;;8.15;6.12;;;2.70;99.90;;;;;;1854416;76;21059;-80